Time;durP1;ratioP1;P1;durP2;ratioP2;P2;SDS_P1;SDS_P2;PMS_P1;PMS_P2;Temp;Humidity;BMP_temperature;BMP_pressure;BME280_temperature;BME280_humidity;BME280_pressure;Samples;Min_cycle;Max_cycle;Signal;HPM_P1;HPM_P2
2023/01/20 00:02:26;;;;;;;14.48;11.98;;;;;;;;;;10150185;28;20068;-66
2023/01/20 00:07:19;;;;;;;20.58;17.00;;;;;;;;;;10150969;28;20056;-66
2023/01/20 00:12:13;;;;;;;21.90;16.15;;;;;;;;;;10150664;28;20052;-66
2023/01/20 00:17:07;;;;;;;19.77;16.50;;;;;;;;;;10150602;28;20056;-66
2023/01/20 00:22:01;;;;;;;21.10;16.45;;;;;;;;;;10150590;28;20128;-66
2023/01/20 00:26:54;;;;;;;22.63;17.20;;;;;;;;;;10150254;28;20485;-66
2023/01/20 00:31:48;;;;;;;22.10;17.08;;;;;;;;;;10129363;28;20460;-66
2023/01/20 00:36:41;;;;;;;23.42;19.52;;;;;;;;;;10122746;28;20056;-66
2023/01/20 00:41:36;;;;;;;22.02;16.45;;;;;;;;;;10140958;28;20060;-66
2023/01/20 00:46:30;;;;;;;22.35;17.45;;;;;;;;;;10138459;28;20068;-66
2023/01/20 00:51:23;;;;;;;20.00;16.10;;;;;;;;;;10149843;28;20501;-66
2023/01/20 00:56:17;;;;;;;17.20;14.75;;;;;;;;;;10125830;28;20552;-66
2023/01/20 01:01:11;;;;;;;22.23;17.45;;;;;;;;;;10132613;28;20525;-66
2023/01/20 01:06:11;;;;;;;21.73;16.58;;;;;;;;;;10108483;28;20064;-66
2023/01/20 01:11:05;;;;;;;21.35;15.57;;;;;;;;;;10114167;28;20052;-66
2023/01/20 01:15:59;;;;;;;22.90;17.65;;;;;;;;;;10134810;28;20543;-66
2023/01/20 01:20:53;;;;;;;22.95;17.75;;;;;;;;;;10127682;28;20425;-66
2023/01/20 01:25:46;;;;;;;23.90;17.83;;;;;;;;;;10108547;28;20460;-66
2023/01/20 01:30:39;;;;;;;22.20;18.75;;;;;;;;;;10138113;28;20099;-66
2023/01/20 01:35:33;;;;;;;23.20;19.20;;;;;;;;;;10126457;28;20052;-66
2023/01/20 01:40:26;;;;;;;23.92;17.35;;;;;;;;;;10131116;28;20052;-65
2023/01/20 01:45:23;;;;;;;29.00;20.13;;;;;;;;;;10143141;28;20063;-66
2023/01/20 01:50:27;;;;;;;28.90;19.45;;;;;;;;;;10120513;28;20044;-65
2023/01/20 01:55:23;;;;;;;28.50;20.70;;;;;;;;;;10122641;28;20074;-66
2023/01/20 02:00:17;;;;;;;27.63;19.75;;;;;;;;;;10129333;28;20073;-66
2023/01/20 02:05:12;;;;;;;24.52;18.88;;;;;;;;;;10122557;28;20555;-66
2023/01/20 02:10:08;;;;;;;25.83;19.52;;;;;;;;;;10125949;28;20048;-66
2023/01/20 02:15:02;;;;;;;25.08;18.17;;;;;;;;;;10142734;28;20496;-67
2023/01/20 02:20:14;;;;;;;24.70;19.15;;;;;;;;;;10129451;28;20055;-66
2023/01/20 02:25:40;;;;;;;28.45;20.63;;;;;;;;;;10129093;28;20408;-66
2023/01/20 02:30:52;;;;;;;23.05;17.88;;;;;;;;;;10140307;28;20052;-66
2023/01/20 02:35:49;;;;;;;24.50;17.20;;;;;;;;;;10124430;28;20084;-66
2023/01/20 02:40:50;;;;;;;24.15;19.60;;;;;;;;;;10133305;28;20068;-66
2023/01/20 02:45:55;;;;;;;23.52;18.48;;;;;;;;;;10133215;28;20067;-66
2023/01/20 02:51:02;;;;;;;24.20;18.23;;;;;;;;;;10134337;28;20071;-66
2023/01/20 02:55:55;;;;;;;23.08;17.38;;;;;;;;;;10119166;28;20073;-66
2023/01/20 03:00:52;;;;;;;23.65;17.70;;;;;;;;;;10140525;28;20127;-66
2023/01/20 03:05:53;;;;;;;19.02;16.05;;;;;;;;;;10153069;28;20046;-66
2023/01/20 03:10:47;;;;;;;21.15;17.05;;;;;;;;;;10136008;28;20048;-66
2023/01/20 03:15:58;;;;;;;22.67;16.35;;;;;;;;;;10151151;28;20048;-66
2023/01/20 03:20:51;;;;;;;22.92;17.40;;;;;;;;;;10127632;28;20067;-66
2023/01/20 03:25:46;;;;;;;21.15;16.70;;;;;;;;;;10120784;28;20049;-66
2023/01/20 03:30:40;;;;;;;19.17;14.13;;;;;;;;;;10107086;28;20059;-66
2023/01/20 03:35:34;;;;;;;16.48;14.38;;;;;;;;;;10115873;28;20084;-66
2023/01/20 03:40:31;;;;;;;19.08;15.75;;;;;;;;;;10122576;28;20052;-66
2023/01/20 03:45:35;;;;;;;19.23;16.90;;;;;;;;;;10177061;28;20060;-67
2023/01/20 03:51:08;;;;;;;15.80;13.85;;;;;;;;;;10138113;28;20052;-66
2023/01/20 03:56:05;;;;;;;17.67;14.50;;;;;;;;;;10118057;28;20098;-66
2023/01/20 04:01:07;;;;;;;19.25;15.25;;;;;;;;;;10117254;28;20056;-66
2023/01/20 04:06:12;;;;;;;17.35;15.35;;;;;;;;;;10138500;28;20095;-66
2023/01/20 04:11:06;;;;;;;18.50;14.05;;;;;;;;;;10149340;28;20028;-66
2023/01/20 04:15:58;;;;;;;18.10;14.38;;;;;;;;;;10119625;28;20139;-66
2023/01/20 04:21:02;;;;;;;17.02;14.60;;;;;;;;;;10130326;28;20048;-66
2023/01/20 04:25:55;;;;;;;17.08;14.18;;;;;;;;;;10150008;28;20136;-66
2023/01/20 04:30:48;;;;;;;20.33;14.10;;;;;;;;;;10114249;28;20044;-66
2023/01/20 04:35:41;;;;;;;16.92;15.13;;;;;;;;;;10132767;28;20497;-67
2023/01/20 04:40:35;;;;;;;20.80;15.63;;;;;;;;;;10158038;28;20040;-66
2023/01/20 04:45:28;;;;;;;20.95;15.75;;;;;;;;;;10138336;28;20448;-66
2023/01/20 04:50:22;;;;;;;21.60;16.40;;;;;;;;;;10146718;28;20043;-66
2023/01/20 04:55:17;;;;;;;22.85;17.33;;;;;;;;;;10124059;28;20378;-66
2023/01/20 05:00:10;;;;;;;22.20;17.65;;;;;;;;;;10132253;28;20525;-66
2023/01/20 05:05:06;;;;;;;20.20;15.48;;;;;;;;;;10125081;28;20035;-66
2023/01/20 05:09:59;;;;;;;19.58;14.18;;;;;;;;;;10108589;28;20052;-66
2023/01/20 05:14:53;;;;;;;21.05;14.80;;;;;;;;;;10108352;28;20481;-66
2023/01/20 05:19:46;;;;;;;20.25;15.77;;;;;;;;;;10119734;28;20413;-66
2023/01/20 05:24:40;;;;;;;20.02;15.20;;;;;;;;;;10116170;28;20597;-66
2023/01/20 05:29:33;;;;;;;19.13;15.95;;;;;;;;;;10120553;28;20444;-66
2023/01/20 05:34:27;;;;;;;22.08;15.95;;;;;;;;;;10123641;28;20135;-66
2023/01/20 05:39:21;;;;;;;24.70;17.10;;;;;;;;;;10143634;28;20135;-66
2023/01/20 05:44:15;;;;;;;21.90;17.42;;;;;;;;;;10132214;28;20040;-66
2023/01/20 05:49:11;;;;;;;24.35;17.17;;;;;;;;;;10110043;28;20055;-66
2023/01/20 05:54:05;;;;;;;21.40;17.27;;;;;;;;;;10128965;28;20048;-66
2023/01/20 05:58:59;;;;;;;25.90;18.00;;;;;;;;;;10108373;28;20045;-66
2023/01/20 06:03:53;;;;;;;22.88;18.05;;;;;;;;;;10106808;28;20052;-66
2023/01/20 06:08:48;;;;;;;25.35;18.75;;;;;;;;;;10132506;28;20075;-66
2023/01/20 06:13:42;;;;;;;25.67;19.75;;;;;;;;;;10105304;28;20140;-66
2023/01/20 06:18:35;;;;;;;24.63;19.10;;;;;;;;;;10121748;28;20111;-65
2023/01/20 06:23:30;;;;;;;21.38;17.08;;;;;;;;;;10114684;28;20056;-66
2023/01/20 06:28:25;;;;;;;24.50;17.58;;;;;;;;;;10109383;28;20060;-67
2023/01/20 06:33:19;;;;;;;24.02;18.98;;;;;;;;;;10123099;28;20045;-69
2023/01/20 06:38:14;;;;;;;23.58;18.70;;;;;;;;;;10163474;28;20459;-66
2023/01/20 06:43:07;;;;;;;21.45;17.92;;;;;;;;;;10116933;28;20134;-65
2023/01/20 06:48:01;;;;;;;19.30;16.42;;;;;;;;;;10132114;28;20113;-65
2023/01/20 06:52:55;;;;;;;20.75;16.23;;;;;;;;;;10121071;28;20053;-65
2023/01/20 06:57:49;;;;;;;22.10;16.67;;;;;;;;;;10137348;28;20049;-65
2023/01/20 07:02:43;;;;;;;21.95;17.83;;;;;;;;;;10135100;28;20052;-64
2023/01/20 07:07:37;;;;;;;19.77;17.30;;;;;;;;;;10106747;28;20120;-64
2023/01/20 07:12:31;;;;;;;21.83;16.17;;;;;;;;;;10148548;28;20044;-64
2023/01/20 07:17:24;;;;;;;19.48;16.08;;;;;;;;;;10134733;28;20052;-64
2023/01/20 07:22:18;;;;;;;23.67;18.25;;;;;;;;;;10126108;28;20076;-64
2023/01/20 07:27:13;;;;;;;20.98;16.02;;;;;;;;;;10127273;28;20053;-65
2023/01/20 07:32:07;;;;;;;21.17;16.73;;;;;;;;;;10108285;28;20045;-65
2023/01/20 07:37:01;;;;;;;20.05;16.48;;;;;;;;;;10137406;28;20531;-65
2023/01/20 07:41:54;;;;;;;21.27;17.50;;;;;;;;;;10147354;28;20044;-64
2023/01/20 07:46:50;;;;;;;21.75;18.70;;;;;;;;;;10157027;28;20612;-64
2023/01/20 07:51:43;;;;;;;22.10;18.10;;;;;;;;;;10121401;28;20501;-64
2023/01/20 07:56:36;;;;;;;20.95;16.45;;;;;;;;;;10136809;28;20085;-65
2023/01/20 08:01:31;;;;;;;19.40;16.48;;;;;;;;;;10139723;28;20040;-64
2023/01/20 08:06:25;;;;;;;23.58;18.02;;;;;;;;;;10114390;28;20083;-64
2023/01/20 08:11:20;;;;;;;18.65;15.25;;;;;;;;;;10147881;28;20049;-64
2023/01/20 08:16:16;;;;;;;19.67;15.55;;;;;;;;;;10145282;28;20048;-64
2023/01/20 08:21:18;;;;;;;17.35;14.07;;;;;;;;;;10133671;28;20049;-64
2023/01/20 08:26:12;;;;;;;17.83;14.32;;;;;;;;;;10125632;28;20509;-65
2023/01/20 08:31:15;;;;;;;17.15;13.85;;;;;;;;;;10120503;28;20063;-64
2023/01/20 08:36:17;;;;;;;14.88;12.20;;;;;;;;;;10165465;28;20072;-64
2023/01/20 08:41:19;;;;;;;17.40;14.65;;;;;;;;;;10156325;28;20123;-65
2023/01/20 08:46:15;;;;;;;17.25;14.52;;;;;;;;;;10128175;28;20140;-64
2023/01/20 08:51:14;;;;;;;15.57;13.27;;;;;;;;;;10128742;28;20105;-64
2023/01/20 08:56:15;;;;;;;16.17;13.50;;;;;;;;;;10135094;28;20056;-64
2023/01/20 09:01:10;;;;;;;16.42;12.90;;;;;;;;;;10133431;28;20609;-64
2023/01/20 09:06:05;;;;;;;17.95;13.18;;;;;;;;;;10133328;28;20041;-64
2023/01/20 09:11:08;;;;;;;15.80;14.10;;;;;;;;;;10132650;28;20141;-64
2023/01/20 09:16:03;;;;;;;15.35;13.38;;;;;;;;;;10135114;28;20052;-64
2023/01/20 09:20:58;;;;;;;13.70;12.23;;;;;;;;;;10173368;28;20135;-64
2023/01/20 09:25:51;;;;;;;16.38;12.75;;;;;;;;;;10170990;28;20060;-63
2023/01/20 09:30:44;;;;;;;13.45;11.82;;;;;;;;;;10172414;28;20057;-64
2023/01/20 09:35:39;;;;;;;17.17;15.43;;;;;;;;;;10167124;28;20056;-64
2023/01/20 09:46:00;;;;;;;14.93;13.43;;;;;;;;;;10159018;28;20545;-64
2023/01/20 09:56:18;;;;;;;15.40;13.10;;;;;;;;;;10171750;28;20052;-65
2023/01/20 10:01:29;;;;;;;15.43;13.77;;;;;;;;;;10155236;28;20056;-64
2023/01/20 10:06:27;;;;;;;15.68;13.57;;;;;;;;;;10173429;28;20039;-64
2023/01/20 10:11:21;;;;;;;16.00;13.47;;;;;;;;;;10170815;28;20132;-65
2023/01/20 10:16:25;;;;;;;12.68;10.75;;;;;;;;;;10170401;28;20651;-64
2023/01/20 10:21:30;;;;;;;14.65;13.15;;;;;;;;;;10164041;28;20055;-64
2023/01/20 10:26:42;;;;;;;15.30;13.70;;;;;;;;;;10180089;28;20110;-64
2023/01/20 10:31:39;;;;;;;13.80;12.30;;;;;;;;;;10168885;28;20467;-64
2023/01/20 10:36:33;;;;;;;17.10;14.10;;;;;;;;;;10107821;28;20061;-64
2023/01/20 10:41:29;;;;;;;15.93;13.43;;;;;;;;;;10109552;28;20128;-64
2023/01/20 10:46:59;;;;;;;15.15;13.20;;;;;;;;;;10121832;28;20053;-64
2023/01/20 10:52:01;;;;;;;16.73;13.80;;;;;;;;;;10155002;28;20136;-65
2023/01/20 10:56:55;;;;;;;15.68;13.43;;;;;;;;;;10130003;28;20159;-65
2023/01/20 11:01:51;;;;;;;15.18;13.05;;;;;;;;;;10116730;28;20053;-64
2023/01/20 11:06:59;;;;;;;13.95;12.48;;;;;;;;;;10115739;28;20132;-64
2023/01/20 11:11:53;;;;;;;13.35;11.93;;;;;;;;;;10128087;28;20116;-64
2023/01/20 11:16:50;;;;;;;14.88;12.38;;;;;;;;;;10150688;28;20055;-64
2023/01/20 11:21:44;;;;;;;14.20;12.32;;;;;;;;;;10174882;28;20048;-64
2023/01/20 11:26:38;;;;;;;14.15;12.60;;;;;;;;;;10171348;28;20048;-64
2023/01/20 11:31:36;;;;;;;15.77;12.75;;;;;;;;;;10152948;28;20040;-64
2023/01/20 11:36:30;;;;;;;;;;;;;;;;;;10160446;28;20042;-62
2023/01/20 11:41:28;;;;;;;14.35;12.85;;;;;;;;;;10151466;28;20337;-64
2023/01/20 11:46:30;;;;;;;12.57;11.32;;;;;;;;;;10153901;28;20060;-64
2023/01/20 11:51:25;;;;;;;13.88;12.48;;;;;;;;;;10145163;28;20055;-64
2023/01/20 11:56:23;;;;;;;15.43;13.68;;;;;;;;;;10144061;28;20106;-64
2023/01/20 12:01:28;;;;;;;13.90;12.47;;;;;;;;;;10142481;28;20068;-64
2023/01/20 12:06:37;;;;;;;15.00;12.57;;;;;;;;;;10142998;28;20045;-64
2023/01/20 12:11:33;;;;;;;13.70;12.30;;;;;;;;;;10141922;28;20061;-64
2023/01/20 12:16:29;;;;;;;16.48;14.70;;;;;;;;;;10185402;28;20125;-64
2023/01/20 12:21:25;;;;;;;16.25;12.75;;;;;;;;;;10176957;28;20072;-64
2023/01/20 12:26:20;;;;;;;17.65;15.23;;;;;;;;;;10170889;28;20510;-66
2023/01/20 12:31:18;;;;;;;17.33;15.38;;;;;;;;;;10178606;28;20063;-66
2023/01/20 12:36:30;;;;;;;18.95;15.93;;;;;;;;;;10166332;28;20081;-66
2023/01/20 12:41:51;;;;;;;16.45;14.40;;;;;;;;;;10162738;28;20055;-66
2023/01/20 12:46:49;;;;;;;15.38;13.77;;;;;;;;;;10164599;28;20059;-66
2023/01/20 12:51:48;;;;;;;17.27;15.43;;;;;;;;;;10156520;28;20293;-66
2023/01/20 12:56:58;;;;;;;17.45;15.52;;;;;;;;;;10154080;28;20056;-66
2023/01/20 13:02:19;;;;;;;18.17;14.77;;;;;;;;;;10141223;28;20081;-66
2023/01/20 13:07:39;;;;;;;17.15;14.00;;;;;;;;;;10149084;28;20393;-66
2023/01/20 13:12:50;;;;;;;15.15;13.55;;;;;;;;;;10156948;28;20060;-66
2023/01/20 13:18:16;;;;;;;23.30;15.20;;;;;;;;;;10179826;28;20075;-65
2023/01/20 13:23:16;;;;;;;16.70;14.85;;;;;;;;;;10166894;28;20048;-65
2023/01/20 13:28:26;;;;;;;17.65;15.80;;;;;;;;;;10173151;28;20090;-65
2023/01/20 13:33:40;;;;;;;18.40;16.48;;;;;;;;;;10172687;28;20125;-66
2023/01/20 13:38:38;;;;;;;19.35;15.93;;;;;;;;;;10156363;28;20047;-68
2023/01/20 13:43:35;;;;;;;17.02;15.23;;;;;;;;;;10138999;28;20127;-64
2023/01/20 13:48:29;;;;;;;21.13;16.02;;;;;;;;;;10125653;28;20068;-64
2023/01/20 13:53:27;;;;;;;17.73;15.85;;;;;;;;;;10128787;28;20051;-64
2023/01/20 13:58:41;;;;;;;19.52;16.42;;;;;;;;;;10139987;28;20057;-64
2023/01/20 14:03:46;;;;;;;19.90;17.02;;;;;;;;;;10139600;28;20049;-64
2023/01/20 14:08:44;;;;;;;21.88;19.20;;;;;;;;;;10121623;28;20045;-64
2023/01/20 14:13:38;;;;;;;20.48;17.17;;;;;;;;;;10159535;28;20052;-64
2023/01/20 14:18:32;;;;;;;20.67;18.20;;;;;;;;;;10148406;28;20056;-64
2023/01/20 14:23:38;;;;;;;19.15;16.77;;;;;;;;;;10124446;28;20128;-64
2023/01/20 14:28:40;;;;;;;19.88;17.70;;;;;;;;;;10136901;28;20068;-64
2023/01/20 14:33:42;;;;;;;20.13;17.98;;;;;;;;;;10161704;28;20063;-64
2023/01/20 14:38:36;;;;;;;20.25;18.00;;;;;;;;;;10133323;28;20131;-64
2023/01/20 14:43:48;;;;;;;18.70;16.35;;;;;;;;;;10129960;28;20048;-64
2023/01/20 14:48:42;;;;;;;17.67;14.80;;;;;;;;;;10149029;28;20098;-64
2023/01/20 14:53:36;;;;;;;17.52;15.82;;;;;;;;;;10159277;28;20063;-64
2023/01/20 14:58:29;;;;;;;17.98;16.17;;;;;;;;;;10116980;28;20045;-64
2023/01/20 15:03:23;;;;;;;20.10;16.63;;;;;;;;;;10129268;28;20167;-65
2023/01/20 15:08:23;;;;;;;18.85;16.83;;;;;;;;;;10164507;28;20064;-64
2023/01/20 15:13:25;;;;;;;19.45;16.75;;;;;;;;;;10174163;28;20436;-64
2023/01/20 15:18:18;;;;;;;18.00;15.50;;;;;;;;;;10162233;28;20139;-64
2023/01/20 15:23:37;;;;;;;18.52;16.45;;;;;;;;;;10124802;28;20083;-65
2023/01/20 15:28:31;;;;;;;18.65;16.75;;;;;;;;;;10156415;28;20612;-65
2023/01/20 15:33:27;;;;;;;18.60;15.50;;;;;;;;;;10148644;28;20486;-64
2023/01/20 15:38:29;;;;;;;20.08;18.02;;;;;;;;;;10157010;28;20167;-64
2023/01/20 15:43:22;;;;;;;20.98;16.42;;;;;;;;;;10135086;28;20394;-64
2023/01/20 15:48:19;;;;;;;17.85;15.38;;;;;;;;;;10139234;28;20058;-64
2023/01/20 15:53:13;;;;;;;18.95;17.10;;;;;;;;;;10144871;28;20126;-64
2023/01/20 15:58:21;;;;;;;20.92;17.63;;;;;;;;;;10131621;28;20045;-64
2023/01/20 16:03:15;;;;;;;18.98;17.08;;;;;;;;;;10133786;28;20048;-64
2023/01/20 16:08:21;;;;;;;20.25;17.52;;;;;;;;;;10115840;28;20091;-64
2023/01/20 16:13:15;;;;;;;21.95;18.83;;;;;;;;;;10149762;28;20052;-64
2023/01/20 16:18:14;;;;;;;21.23;18.90;;;;;;;;;;10129365;28;20079;-64
2023/01/20 16:23:08;;;;;;;20.60;18.40;;;;;;;;;;10164482;28;20053;-64
2023/01/20 16:28:04;;;;;;;20.92;18.73;;;;;;;;;;10121332;28;20065;-64
2023/01/20 16:32:57;;;;;;;21.60;19.00;;;;;;;;;;10144683;28;20048;-64
2023/01/20 16:37:51;;;;;;;21.30;18.65;;;;;;;;;;10131141;28;20439;-65
2023/01/20 16:42:44;;;;;;;24.67;17.83;;;;;;;;;;10132426;28;20102;-66
2023/01/20 16:47:38;;;;;;;20.77;18.20;;;;;;;;;;10135975;28;20081;-66
2023/01/20 16:52:32;;;;;;;22.23;19.92;;;;;;;;;;10132987;28;20053;-65
2023/01/20 16:57:25;;;;;;;23.75;20.42;;;;;;;;;;10137945;28;20110;-66
2023/01/20 17:02:19;;;;;;;24.52;21.67;;;;;;;;;;10113416;28;20049;-65
2023/01/20 17:07:12;;;;;;;24.48;20.20;;;;;;;;;;10119239;28;20080;-66
2023/01/20 17:12:05;;;;;;;34.95;28.13;;;;;;;;;;10153340;28;20045;-65
2023/01/20 17:16:59;;;;;;;37.90;29.27;;;;;;;;;;10174632;28;20097;-65
2023/01/20 17:21:54;;;;;;;27.70;22.85;;;;;;;;;;10175028;28;20492;-66
2023/01/20 17:26:48;;;;;;;23.60;21.00;;;;;;;;;;10178320;28;20040;-64
2023/01/20 17:31:43;;;;;;;26.50;21.02;;;;;;;;;;10166631;28;20041;-66
2023/01/20 17:36:38;;;;;;;23.63;20.38;;;;;;;;;;10159383;28;20105;-68
2023/01/20 17:41:33;;;;;;;31.30;23.83;;;;;;;;;;10130990;28;20055;-69
2023/01/20 17:46:28;;;;;;;29.38;23.98;;;;;;;;;;10115822;28;20056;-69
2023/01/20 17:51:26;;;;;;;25.73;21.90;;;;;;;;;;10147788;28;20052;-68
2023/01/20 17:56:22;;;;;;;28.15;23.90;;;;;;;;;;10146981;28;20519;-64
2023/01/20 18:01:43;;;;;;;55.45;49.55;;;;;;;;;;10129970;28;20429;-64
2023/01/20 18:06:37;;;;;;;36.55;33.05;;;;;;;;;;10136693;28;20040;-63
2023/01/20 18:11:33;;;;;;;31.17;23.13;;;;;;;;;;10143408;28;20050;-65
2023/01/20 18:16:29;;;;;;;27.35;22.73;;;;;;;;;;10155127;28;20511;-65
2023/01/20 18:21:24;;;;;;;26.30;23.45;;;;;;;;;;10148846;28;20558;-67
2023/01/20 18:26:20;;;;;;;27.80;23.88;;;;;;;;;;10129217;28;20136;-65
2023/01/20 18:31:17;;;;;;;25.15;22.50;;;;;;;;;;10139888;28;20040;-65
2023/01/20 18:36:13;;;;;;;29.25;24.50;;;;;;;;;;10116669;28;20506;-64
2023/01/20 18:41:10;;;;;;;27.83;24.80;;;;;;;;;;10151176;28;20049;-66
2023/01/20 18:46:05;;;;;;;29.02;23.52;;;;;;;;;;10124645;28;20501;-66
2023/01/20 18:51:00;;;;;;;27.33;22.20;;;;;;;;;;10123611;28;20052;-67
2023/01/20 18:56:01;;;;;;;24.52;21.73;;;;;;;;;;10135231;28;21485;-68
2023/01/20 19:01:01;;;;;;;27.10;24.23;;;;;;;;;;10124623;28;20102;-67
2023/01/20 19:05:54;;;;;;;27.33;22.95;;;;;;;;;;10126538;28;20049;-68
2023/01/20 19:10:49;;;;;;;30.17;25.48;;;;;;;;;;10150729;28;20036;-67
2023/01/20 19:15:43;;;;;;;31.27;26.42;;;;;;;;;;10133704;28;20040;-67
2023/01/20 19:20:37;;;;;;;29.08;23.73;;;;;;;;;;10149039;28;20059;-73
2023/01/20 19:25:30;;;;;;;29.58;24.05;;;;;;;;;;10141880;28;20052;-76
2023/01/20 19:30:24;;;;;;;30.48;26.70;;;;;;;;;;10151976;28;20412;-75
2023/01/20 19:35:16;;;;;;;29.70;24.35;;;;;;;;;;10140287;28;20431;-74
2023/01/20 19:40:12;;;;;;;32.60;26.60;;;;;;;;;;10150527;28;20488;-71
2023/01/20 19:45:09;;;;;;;27.25;23.23;;;;;;;;;;10135571;28;20075;-78
2023/01/20 19:50:04;;;;;;;30.77;25.85;;;;;;;;;;10145102;28;20056;-74
2023/01/20 19:54:57;;;;;;;35.58;31.80;;;;;;;;;;10145144;28;20064;-66
2023/01/20 19:59:50;;;;;;;26.25;23.35;;;;;;;;;;10140769;28;20099;-67
2023/01/20 20:04:45;;;;;;;28.05;25.00;;;;;;;;;;10161985;28;20572;-68
2023/01/20 20:09:41;;;;;;;37.65;32.20;;;;;;;;;;10174908;28;20055;-67
2023/01/20 20:14:34;;;;;;;31.35;27.92;;;;;;;;;;10142349;28;20040;-66
2023/01/20 20:19:28;;;;;;;28.30;24.00;;;;;;;;;;10142333;28;20049;-67
2023/01/20 20:24:22;;;;;;;27.17;24.27;;;;;;;;;;10139950;28;20052;-67
2023/01/20 20:29:18;;;;;;;25.55;22.73;;;;;;;;;;10142301;28;20063;-67
2023/01/20 20:34:14;;;;;;;32.45;27.20;;;;;;;;;;10142881;28;20047;-66
2023/01/20 20:39:08;;;;;;;31.23;25.42;;;;;;;;;;10141658;28;20094;-66
2023/01/20 20:44:03;;;;;;;27.10;24.23;;;;;;;;;;10136787;28;20414;-68
2023/01/20 20:48:58;;;;;;;28.15;24.83;;;;;;;;;;10144468;28;20058;-68
2023/01/20 20:53:56;;;;;;;34.15;27.27;;;;;;;;;;10136802;28;20040;-66
2023/01/20 20:58:51;;;;;;;29.17;26.13;;;;;;;;;;10136854;28;20128;-67
2023/01/20 21:03:56;;;;;;;28.58;24.52;;;;;;;;;;10141294;28;20048;-67
2023/01/20 21:08:50;;;;;;;29.45;26.35;;;;;;;;;;10141094;28;20123;-67
2023/01/20 21:13:44;;;;;;;27.92;25.00;;;;;;;;;;10144078;28;20068;-66
2023/01/20 21:18:38;;;;;;;31.60;25.27;;;;;;;;;;10157037;28;20051;-67
2023/01/20 21:23:31;;;;;;;32.63;25.35;;;;;;;;;;10139072;28;20045;-67
2023/01/20 21:28:25;;;;;;;30.52;25.90;;;;;;;;;;10139923;28;20071;-67
2023/01/20 21:33:19;;;;;;;30.20;26.95;;;;;;;;;;10141005;28;20407;-67
2023/01/20 21:38:13;;;;;;;30.65;27.35;;;;;;;;;;10150505;28;20044;-66
2023/01/20 21:53:32;;;;;;;28.17;25.27;;;;;;;;;;10139899;28;20474;-67
2023/01/20 21:58:26;;;;;;;31.20;25.08;;;;;;;;;;10146521;28;20499;-65
2023/01/20 22:03:19;;;;;;;29.30;26.15;;;;;;;;;;10147799;28;20056;-65
2023/01/20 22:08:14;;;;;;;31.95;27.05;;;;;;;;;;10145318;28;20045;-65
2023/01/20 22:13:08;;;;;;;30.20;26.90;;;;;;;;;;10142672;28;20052;-66
2023/01/20 22:18:00;;;;;;;28.80;24.73;;;;;;;;;;10139264;28;20040;-66
2023/01/20 22:22:54;;;;;;;28.55;25.30;;;;;;;;;;10144354;28;20051;-65
2023/01/20 22:27:47;;;;;;;27.38;24.35;;;;;;;;;;10139814;28;20059;-65
2023/01/20 22:32:40;;;;;;;28.38;22.63;;;;;;;;;;10140952;28;20041;-65
2023/01/20 22:37:33;;;;;;;27.88;22.80;;;;;;;;;;10140491;28;20037;-65
2023/01/20 22:42:27;;;;;;;24.20;21.70;;;;;;;;;;10140960;28;20454;-66
2023/01/20 22:47:21;;;;;;;23.58;20.67;;;;;;;;;;10150155;28;20496;-65
2023/01/20 22:52:15;;;;;;;22.48;20.13;;;;;;;;;;10147443;28;20161;-65
2023/01/20 22:57:10;;;;;;;23.35;20.83;;;;;;;;;;10153722;28;20147;-65
2023/01/20 23:02:04;;;;;;;23.13;19.90;;;;;;;;;;10154916;28;20055;-66
2023/01/20 23:06:57;;;;;;;20.17;18.13;;;;;;;;;;10139179;28;20538;-65
2023/01/20 23:11:51;;;;;;;20.42;18.17;;;;;;;;;;10159868;28;20040;-66
2023/01/20 23:16:45;;;;;;;19.50;17.17;;;;;;;;;;10159266;28;20072;-67
2023/01/20 23:21:39;;;;;;;22.67;18.30;;;;;;;;;;10167875;28;20497;-66
2023/01/20 23:26:34;;;;;;;22.63;19.20;;;;;;;;;;10158537;28;20036;-65
2023/01/20 23:31:31;;;;;;;22.58;18.90;;;;;;;;;;10150139;28;20053;-66
2023/01/20 23:36:26;;;;;;;21.13;18.95;;;;;;;;;;10133331;28;20053;-67
2023/01/20 23:41:20;;;;;;;21.67;18.60;;;;;;;;;;10133895;28;20098;-66
2023/01/20 23:46:13;;;;;;;21.98;19.67;;;;;;;;;;10134214;28;20056;-66
2023/01/20 23:51:07;;;;;;;21.70;19.10;;;;;;;;;;10144739;28;20056;-67
2023/01/20 23:56:03;;;;;;;22.42;19.98;;;;;;;;;;10139892;28;20414;-66
